createdAt,value
2016-12-04T00:00:38.203Z,19.3
2016-12-04T00:01:37.900Z,19.31
2016-12-04T00:02:38.170Z,19.27
2016-12-04T00:03:38.189Z,19.3
2016-12-04T00:04:37.821Z,19.3
2016-12-04T00:05:38.116Z,19.23
2016-12-04T00:06:38.105Z,19.27
2016-12-04T00:07:38.086Z,19.27
2016-12-04T00:08:38.065Z,19.25
2016-12-04T00:09:37.738Z,19.27
2016-12-04T00:10:38.037Z,19.17
2016-12-04T00:11:37.706Z,19.2
2016-12-04T00:12:38.009Z,19.13
2016-12-04T00:13:37.666Z,19.16
2016-12-04T00:14:37.974Z,19.21
2016-12-04T00:15:37.952Z,19.15
2016-12-04T00:16:37.618Z,19.13
2016-12-04T00:17:37.922Z,19.06
2016-12-04T00:18:37.899Z,19.05
2016-12-04T00:19:37.885Z,19.07
2016-12-04T00:20:37.871Z,19.07
2016-12-04T00:21:37.882Z,19.12
2016-12-04T00:22:37.838Z,19.05
2016-12-04T00:23:37.821Z,19.06
2016-12-04T00:24:37.803Z,18.99
2016-12-04T00:25:37.468Z,18.99
2016-12-04T00:26:37.773Z,19.05
2016-12-04T00:27:37.785Z,18.99
2016-12-04T00:28:37.736Z,18.99
2016-12-04T00:29:37.713Z,18.97
2016-12-04T00:30:37.382Z,18.97
2016-12-04T00:31:37.686Z,18.99
2016-12-04T00:32:37.666Z,18.91
2016-12-04T00:33:37.647Z,18.96
2016-12-04T00:34:37.312Z,18.93
2016-12-04T00:35:37.618Z,18.86
2016-12-04T00:36:37.281Z,18.91
2016-12-04T00:37:37.581Z,18.89
2016-12-04T00:38:37.563Z,18.86
2016-12-04T00:39:37.556Z,18.75
2016-12-04T00:40:37.534Z,18.87
2016-12-04T00:41:37.512Z,18.83
2016-12-04T00:42:37.497Z,18.75
2016-12-04T00:43:37.167Z,18.79
2016-12-04T00:44:37.468Z,18.72
2016-12-04T00:45:37.449Z,18.76
2016-12-04T00:46:37.430Z,18.75
2016-12-04T00:47:37.101Z,18.78
2016-12-04T00:48:37.394Z,18.75
2016-12-04T00:49:37.382Z,18.78
2016-12-04T00:50:37.049Z,18.74
2016-12-04T00:51:37.066Z,18.71
2016-12-04T00:52:37.329Z,18.71
2016-12-04T00:53:37.318Z,18.76
2016-12-04T00:54:37.303Z,18.74
2016-12-04T00:55:37.282Z,18.74
2016-12-04T00:56:36.954Z,18.71
2016-12-04T00:57:37.243Z,18.62
2016-12-04T00:58:37.236Z,18.62
2016-12-04T00:59:36.906Z,18.62
2016-12-04T01:00:37.393Z,18.64
2016-12-04T01:01:37.183Z,18.64
2016-12-04T01:02:37.161Z,18.62
2016-12-04T01:03:37.148Z,18.6
2016-12-04T01:04:36.809Z,18.68
2016-12-04T01:05:37.118Z,18.66
2016-12-04T01:06:37.090Z,18.68
2016-12-04T01:07:37.083Z,18.74
2016-12-04T01:08:37.074Z,18.65
2016-12-04T01:09:37.043Z,18.62
2016-12-04T01:10:37.028Z,18.56
2016-12-04T01:11:36.691Z,18.71
2016-12-04T01:12:36.991Z,18.64
2016-12-04T01:13:36.658Z,18.65
2016-12-04T01:14:36.972Z,18.66
2016-12-04T01:15:36.939Z,18.65
2016-12-04T01:16:36.933Z,18.69
2016-12-04T01:17:37.143Z,18.65
2016-12-04T01:18:36.570Z,18.64
2016-12-04T01:19:37.090Z,18.56
2016-12-04T01:20:36.856Z,18.56
2016-12-04T01:21:36.844Z,18.6
2016-12-04T01:22:36.185Z,18.56
2016-12-04T01:23:36.816Z,18.57
2016-12-04T01:24:36.787Z,18.64
2016-12-04T01:25:36.771Z,18.6
2016-12-04T01:26:36.438Z,18.59
2016-12-04T01:27:36.737Z,18.59
2016-12-04T01:28:36.724Z,18.57
2016-12-04T01:29:36.702Z,18.53
2016-12-04T01:30:36.887Z,18.53
2016-12-04T01:31:36.694Z,18.5
2016-12-04T01:32:36.649Z,18.53
2016-12-04T01:33:36.873Z,18.5
2016-12-04T01:34:36.302Z,18.6
2016-12-04T01:35:36.605Z,18.56
2016-12-04T01:36:36.262Z,18.53
2016-12-04T01:37:36.563Z,18.54
2016-12-04T01:38:36.787Z,18.53
2016-12-04T01:39:36.214Z,18.5
2016-12-04T01:40:36.519Z,18.49
2016-12-04T01:41:36.496Z,18.56
2016-12-04T01:42:36.484Z,18.54
2016-12-04T01:43:36.462Z,18.51
2016-12-04T01:44:36.126Z,18.51
2016-12-04T01:45:36.429Z,18.53
2016-12-04T01:46:36.406Z,18.57
2016-12-04T01:47:36.395Z,18.38
2016-12-04T01:48:36.373Z,18.39
2016-12-04T01:49:36.042Z,18.49
2016-12-04T01:50:36.345Z,18.39
2016-12-04T01:51:36.006Z,18.42
2016-12-04T01:52:36.317Z,18.47
2016-12-04T01:53:36.293Z,18.35
2016-12-04T01:54:36.276Z,18.39
2016-12-04T01:55:36.257Z,18.46
2016-12-04T01:56:35.922Z,18.38
2016-12-04T01:57:36.221Z,18.36
2016-12-04T01:58:35.926Z,18.36
2016-12-04T01:59:36.190Z,18.41
2016-12-04T02:00:35.852Z,18.41
2016-12-04T02:01:36.152Z,18.36
2016-12-04T02:02:36.135Z,18.38
2016-12-04T02:03:35.812Z,18.42
2016-12-04T02:04:36.133Z,18.39
2016-12-04T02:05:36.081Z,18.35
2016-12-04T02:06:35.756Z,18.44
2016-12-04T02:07:36.055Z,18.41
2016-12-04T02:08:36.042Z,18.31
2016-12-04T02:09:35.702Z,18.36
2016-12-04T02:10:35.997Z,18.34
2016-12-04T02:11:35.986Z,18.35
2016-12-04T02:12:35.965Z,18.38
2016-12-04T02:13:35.953Z,18.31
2016-12-04T02:14:35.930Z,18.39
2016-12-04T02:15:35.599Z,18.39
2016-12-04T02:16:35.892Z,18.32
2016-12-04T02:17:35.565Z,18.34
2016-12-04T02:18:35.548Z,18.42
2016-12-04T02:19:35.537Z,18.34
2016-12-04T02:20:35.761Z,18.41
2016-12-04T02:21:35.496Z,18.32
2016-12-04T02:22:35.483Z,18.38
2016-12-04T02:23:35.778Z,18.32
2016-12-04T02:24:35.759Z,18.32
2016-12-04T02:25:35.431Z,18.32
2016-12-04T02:26:35.778Z,18.31
2016-12-04T02:27:35.711Z,18.31
2016-12-04T02:28:35.690Z,18.25
2016-12-04T02:29:35.707Z,18.31
2016-12-04T02:30:35.656Z,18.26
2016-12-04T02:31:35.644Z,18.28
2016-12-04T02:32:35.623Z,18.23
2016-12-04T02:33:35.606Z,18.26
2016-12-04T02:34:35.275Z,18.25
2016-12-04T02:35:35.499Z,18.34
2016-12-04T02:36:35.550Z,18.34
2016-12-04T02:37:35.535Z,18.26
2016-12-04T02:38:35.516Z,18.25
2016-12-04T02:39:35.507Z,18.29
2016-12-04T02:40:35.483Z,18.28
2016-12-04T02:41:35.474Z,18.29
2016-12-04T02:42:35.448Z,18.26
2016-12-04T02:43:35.436Z,18.26
2016-12-04T02:44:35.630Z,18.25
2016-12-04T02:45:35.130Z,18.23
2016-12-04T02:46:35.382Z,18.21
2016-12-04T02:47:35.412Z,18.2
2016-12-04T02:48:35.030Z,18.26
2016-12-04T02:49:35.326Z,18.21
2016-12-04T02:50:35.318Z,18.19
2016-12-04T02:51:34.975Z,18.2
2016-12-04T02:52:35.272Z,18.21
2016-12-04T02:53:34.942Z,18.21
2016-12-04T02:54:35.243Z,18.2
2016-12-04T02:55:34.904Z,18.19
2016-12-04T02:56:34.890Z,18.21
2016-12-04T02:57:35.190Z,18.14
2016-12-04T02:58:35.170Z,18.2
2016-12-04T02:59:34.836Z,18.21
2016-12-04T03:00:34.815Z,18.16
2016-12-04T03:01:34.804Z,18.19
2016-12-04T03:02:35.109Z,18.14
2016-12-04T03:03:34.449Z,18.13
2016-12-04T03:04:34.748Z,18.19
2016-12-04T03:05:35.087Z,18.11
2016-12-04T03:06:35.029Z,18.17
2016-12-04T03:07:35.015Z,18.16
2016-12-04T03:08:34.993Z,18.13
2016-12-04T03:09:34.973Z,18.2
2016-12-04T03:10:34.962Z,18.16
2016-12-04T03:11:34.873Z,18.14
2016-12-04T03:12:34.934Z,18.2
2016-12-04T03:13:34.910Z,18.07
2016-12-04T03:14:34.888Z,18.09
2016-12-04T03:15:34.560Z,18.09
2016-12-04T03:16:34.543Z,18.11
2016-12-04T03:17:34.525Z,18.11
2016-12-04T03:18:34.816Z,18.11
2016-12-04T03:19:34.483Z,18.11
2016-12-04T03:20:34.475Z,18.07
2016-12-04T03:21:34.770Z,18.09
2016-12-04T03:22:34.433Z,18.09
2016-12-04T03:23:34.730Z,18.05
2016-12-04T03:24:34.717Z,18.09
2016-12-04T03:25:34.695Z,18.1
2016-12-04T03:26:34.684Z,18.05
2016-12-04T03:27:34.663Z,18.09
2016-12-04T03:28:34.646Z,18.02
2016-12-04T03:29:34.628Z,18.07
2016-12-04T03:30:34.613Z,18.04
2016-12-04T03:31:34.277Z,18.01
2016-12-04T03:32:34.266Z,17.99
2016-12-04T03:33:34.553Z,18.02
2016-12-04T03:34:34.538Z,18.07
2016-12-04T03:35:33.886Z,18.09
2016-12-04T03:36:34.511Z,18.17
2016-12-04T03:37:34.486Z,18.04
2016-12-04T03:38:34.475Z,18.07
2016-12-04T03:39:33.819Z,17.98
2016-12-04T03:40:34.458Z,18.09
2016-12-04T03:41:34.419Z,18.09
2016-12-04T03:42:33.770Z,18.1
2016-12-04T03:43:34.398Z,18.1
2016-12-04T03:44:34.365Z,17.95
2016-12-04T03:45:34.056Z,18.05
2016-12-04T03:46:34.014Z,18.11
2016-12-04T03:47:34.305Z,18.1
2016-12-04T03:48:34.302Z,18.04
2016-12-04T03:49:34.278Z,18.07
2016-12-04T03:50:34.260Z,18.07
2016-12-04T03:51:34.238Z,17.98
2016-12-04T03:52:33.911Z,17.99
2016-12-04T03:53:34.209Z,18.1
2016-12-04T03:54:33.870Z,18.05
2016-12-04T03:55:33.855Z,17.99
2016-12-04T03:56:33.524Z,17.96
2016-12-04T03:57:34.137Z,17.96
2016-12-04T03:58:34.119Z,18.02
2016-12-04T03:59:34.102Z,17.99
2016-12-04T04:00:34.145Z,17.98
2016-12-04T04:01:33.756Z,17.96
2016-12-04T04:02:34.062Z,17.99
2016-12-04T04:03:34.033Z,17.95
2016-12-04T04:04:34.012Z,17.92
2016-12-04T04:05:33.999Z,17.95
2016-12-04T04:06:33.986Z,17.98
2016-12-04T04:07:33.647Z,18.01
2016-12-04T04:08:33.945Z,18.04
2016-12-04T04:09:33.926Z,17.99
2016-12-04T04:10:33.911Z,17.99
2016-12-04T04:11:33.901Z,17.96
2016-12-04T04:12:33.878Z,17.99
2016-12-04T04:13:33.549Z,17.94
2016-12-04T04:14:33.527Z,17.94
2016-12-04T04:15:33.553Z,17.98
2016-12-04T04:16:33.818Z,18.04
2016-12-04T04:17:33.792Z,17.98
2016-12-04T04:18:33.795Z,17.86
2016-12-04T04:19:33.968Z,17.96
2016-12-04T04:20:33.733Z,17.86
2016-12-04T04:21:33.401Z,17.94
2016-12-04T04:22:33.386Z,17.96
2016-12-04T04:23:33.054Z,17.96
2016-12-04T04:24:33.667Z,17.84
2016-12-04T04:25:33.645Z,17.95
2016-12-04T04:26:33.314Z,17.95
2016-12-04T04:27:33.615Z,17.91
2016-12-04T04:28:33.591Z,17.84
2016-12-04T04:29:33.577Z,18.02
2016-12-04T04:30:33.563Z,17.83
2016-12-04T04:31:33.222Z,17.96
2016-12-04T04:32:33.529Z,17.87
2016-12-04T04:33:33.561Z,17.94
2016-12-04T04:34:33.488Z,17.94
2016-12-04T04:35:33.471Z,17.87
2016-12-04T04:36:33.454Z,17.95
2016-12-04T04:37:33.123Z,17.92
2016-12-04T04:38:33.417Z,17.96
2016-12-04T04:39:33.088Z,17.96
2016-12-04T04:40:33.385Z,17.96
2016-12-04T04:41:33.368Z,17.87
2016-12-04T04:42:33.351Z,17.92
2016-12-04T04:43:33.334Z,17.98
2016-12-04T04:44:33.312Z,17.98
2016-12-04T04:45:33.297Z,17.94
2016-12-04T04:46:32.974Z,17.92
2016-12-04T04:47:33.263Z,17.95
2016-12-04T04:48:33.244Z,17.87
2016-12-04T04:49:32.914Z,17.91
2016-12-04T04:50:33.207Z,17.95
2016-12-04T04:51:33.194Z,17.95
2016-12-04T04:52:32.859Z,17.94
2016-12-04T04:53:33.384Z,17.86
2016-12-04T04:54:33.139Z,17.81
2016-12-04T04:55:32.500Z,17.89
2016-12-04T04:56:33.120Z,17.89
2016-12-04T04:57:33.081Z,17.83
2016-12-04T04:58:32.754Z,17.8
2016-12-04T04:59:33.051Z,17.79
2016-12-04T05:00:32.716Z,17.84
2016-12-04T05:01:33.023Z,17.84
2016-12-04T05:02:32.995Z,17.81
2016-12-04T05:03:33.026Z,17.89
2016-12-04T05:04:32.959Z,17.8
2016-12-04T05:05:32.942Z,17.92
2016-12-04T05:06:32.608Z,17.84
2016-12-04T05:07:32.592Z,18.09
2016-12-04T05:08:32.893Z,18.07
2016-12-04T05:09:32.878Z,18.2
2016-12-04T05:10:32.542Z,18.32
2016-12-04T05:11:32.843Z,18.35
2016-12-04T05:12:32.828Z,18.34
2016-12-04T05:13:32.810Z,18.49
2016-12-04T05:14:32.785Z,18.59
2016-12-04T05:15:32.774Z,18.65
2016-12-04T05:16:32.439Z,18.6
2016-12-04T05:17:32.730Z,18.74
2016-12-04T05:18:32.403Z,18.75
2016-12-04T05:19:32.732Z,18.87
2016-12-04T05:20:32.684Z,18.91
2016-12-04T05:21:32.353Z,19.06
2016-12-04T05:22:32.893Z,19.1
2016-12-04T05:23:32.627Z,19.1
2016-12-04T05:24:32.623Z,19.21
2016-12-04T05:25:32.598Z,19.16
2016-12-04T05:26:32.579Z,19.2
2016-12-04T05:27:32.244Z,19.28
2016-12-04T05:28:32.541Z,19.35
2016-12-04T05:29:32.579Z,19.35
2016-12-04T05:30:32.563Z,19.4
2016-12-04T05:31:32.495Z,19.46
2016-12-04T05:32:32.478Z,19.45
2016-12-04T05:33:32.457Z,19.49
2016-12-04T05:34:32.437Z,19.42
2016-12-04T05:35:32.110Z,19.6
2016-12-04T05:36:32.091Z,19.55
2016-12-04T05:37:32.074Z,19.55
2016-12-04T05:38:32.372Z,19.6
2016-12-04T05:39:32.351Z,19.57
2016-12-04T05:40:32.334Z,19.62
2016-12-04T05:41:32.323Z,19.64
2016-12-04T05:42:32.308Z,19.6
2016-12-04T05:43:32.280Z,19.62
2016-12-04T05:44:32.319Z,19.62
2016-12-04T05:45:31.935Z,19.62
2016-12-04T05:46:32.236Z,19.67
2016-12-04T05:47:32.219Z,19.61
2016-12-04T05:48:32.198Z,19.61
2016-12-04T05:49:32.178Z,19.6
2016-12-04T05:50:32.163Z,19.62
2016-12-04T05:51:32.150Z,19.62
2016-12-04T05:52:31.499Z,19.61
2016-12-04T05:53:32.118Z,19.58
2016-12-04T05:54:32.103Z,19.65
2016-12-04T05:55:32.084Z,19.67
2016-12-04T05:56:32.062Z,19.71
2016-12-04T05:57:31.729Z,19.65
2016-12-04T05:58:31.714Z,19.71
2016-12-04T05:59:32.007Z,19.62
2016-12-04T06:00:31.994Z,19.71
2016-12-04T06:01:31.660Z,19.68
2016-12-04T06:02:31.957Z,19.62
2016-12-04T06:03:31.623Z,19.72
2016-12-04T06:04:31.929Z,19.75
2016-12-04T06:05:31.911Z,19.8
2016-12-04T06:06:32.120Z,19.82
2016-12-04T06:07:31.252Z,19.78
2016-12-04T06:08:31.853Z,19.79
2016-12-04T06:09:31.848Z,19.79
2016-12-04T06:10:31.504Z,19.87
2016-12-04T06:11:31.488Z,19.82
2016-12-04T06:12:31.470Z,19.79
2016-12-04T06:13:31.779Z,19.78
2016-12-04T06:14:31.755Z,19.82
2016-12-04T06:15:31.735Z,19.85
2016-12-04T06:16:31.747Z,19.83
2016-12-04T06:17:31.384Z,19.85
2016-12-04T06:18:31.690Z,19.83
2016-12-04T06:19:31.673Z,19.86
2016-12-04T06:20:31.654Z,19.86
2016-12-04T06:21:31.645Z,19.82
2016-12-04T06:22:31.680Z,19.94
2016-12-04T06:23:31.843Z,19.97
2016-12-04T06:24:30.965Z,19.94
2016-12-04T06:25:31.578Z,19.92
2016-12-04T06:26:31.549Z,19.98
2016-12-04T06:27:31.536Z,20
2016-12-04T06:28:31.515Z,19.94
2016-12-04T06:29:31.502Z,19.95
2016-12-04T06:30:31.495Z,19.97
2016-12-04T06:31:31.523Z,20
2016-12-04T06:32:31.138Z,19.94
2016-12-04T06:33:31.441Z,19.94
2016-12-04T06:34:31.418Z,20
2016-12-04T06:35:31.401Z,20.08
2016-12-04T06:36:31.388Z,20.01
2016-12-04T06:37:31.371Z,19.97
2016-12-04T06:38:31.354Z,20.1
2016-12-04T06:39:31.344Z,20.1
2016-12-04T06:40:31.003Z,20.13
2016-12-04T06:41:31.308Z,20.08
2016-12-04T06:42:31.293Z,20.07
2016-12-04T06:43:31.526Z,20.12
2016-12-04T06:44:31.253Z,20.02
2016-12-04T06:45:30.922Z,20.08
2016-12-04T06:46:30.908Z,20.16
2016-12-04T06:47:31.203Z,20.15
2016-12-04T06:48:30.870Z,20.16
2016-12-04T06:49:31.412Z,20.16
2016-12-04T06:50:31.152Z,20.04
2016-12-04T06:51:30.823Z,20.12
2016-12-04T06:52:31.119Z,20.13
2016-12-04T06:53:31.106Z,20.05
2016-12-04T06:54:31.089Z,20.15
2016-12-04T06:55:31.075Z,20.2
2016-12-04T06:56:30.739Z,20.16
2016-12-04T06:57:31.039Z,20.17
2016-12-04T06:58:31.022Z,20.08
2016-12-04T06:59:31.001Z,20.04
2016-12-04T07:00:30.671Z,20.22
2016-12-04T07:01:30.998Z,20.12
2016-12-04T07:02:30.955Z,20.16
2016-12-04T07:03:30.622Z,20.17
2016-12-04T07:04:30.932Z,20.12
2016-12-04T07:05:30.901Z,20.1
2016-12-04T07:06:30.892Z,20.13
2016-12-04T07:07:30.557Z,20.25
2016-12-04T07:08:30.851Z,20.22
2016-12-04T07:09:30.837Z,20.2
2016-12-04T07:10:30.823Z,20.23
2016-12-04T07:11:30.808Z,20.19
2016-12-04T07:12:30.789Z,20.2
2016-12-04T07:13:30.777Z,20.3
2016-12-04T07:14:30.754Z,20.23
2016-12-04T07:15:30.747Z,20.25
2016-12-04T07:16:30.715Z,20.16
2016-12-04T07:17:30.709Z,20.19
2016-12-04T07:18:30.689Z,20.22
2016-12-04T07:19:30.670Z,20.2
2016-12-04T07:20:30.657Z,20.19
2016-12-04T07:21:30.321Z,20.19
2016-12-04T07:22:30.626Z,20.22
2016-12-04T07:23:30.609Z,20.2
2016-12-04T07:24:30.587Z,20.34
2016-12-04T07:25:29.936Z,20.3
2016-12-04T07:26:30.559Z,20.26
2016-12-04T07:27:30.542Z,20.27
2016-12-04T07:28:30.206Z,20.27
2016-12-04T07:29:30.505Z,20.33
2016-12-04T07:30:30.501Z,20.27
2016-12-04T07:31:30.521Z,20.3
2016-12-04T07:32:30.149Z,20.33
2016-12-04T07:33:30.444Z,20.37
2016-12-04T07:34:30.425Z,20.38
2016-12-04T07:35:30.408Z,20.33
2016-12-04T07:36:30.080Z,20.38
2016-12-04T07:37:30.375Z,20.38
2016-12-04T07:38:30.359Z,20.37
2016-12-04T07:39:30.346Z,20.42
2016-12-04T07:40:30.014Z,20.41
2016-12-04T07:41:29.992Z,20.37
2016-12-04T07:42:30.298Z,20.42
2016-12-04T07:43:29.959Z,20.37
2016-12-04T07:44:30.271Z,20.41
2016-12-04T07:45:30.240Z,20.44
2016-12-04T07:46:29.915Z,20.42
2016-12-04T07:47:30.217Z,20.44
2016-12-04T07:48:30.192Z,20.48
2016-12-04T07:49:30.178Z,20.48
2016-12-04T07:50:30.168Z,20.41
2016-12-04T07:51:30.149Z,20.37
2016-12-04T07:52:30.125Z,20.37
2016-12-04T07:53:30.114Z,20.4
2016-12-04T07:54:30.094Z,20.44
2016-12-04T07:55:30.082Z,20.44
2016-12-04T07:56:30.065Z,20.4
2016-12-04T07:57:29.733Z,20.35
2016-12-04T07:58:30.026Z,20.38
2016-12-04T07:59:30.011Z,20.44
2016-12-04T08:00:29.998Z,20.44
2016-12-04T08:01:29.976Z,20.46
2016-12-04T08:02:29.992Z,20.44
2016-12-04T08:03:29.675Z,20.5
2016-12-04T08:04:29.932Z,20.51
2016-12-04T08:05:29.280Z,20.5
2016-12-04T08:06:29.902Z,20.51
2016-12-04T08:07:29.877Z,20.48
2016-12-04T08:08:29.862Z,20.5
2016-12-04T08:09:29.848Z,20.46
2016-12-04T08:10:29.866Z,20.46
2016-12-04T08:11:29.817Z,20.48
2016-12-04T08:12:29.796Z,20.46
2016-12-04T08:13:29.779Z,20.54
2016-12-04T08:14:29.765Z,20.46
2016-12-04T08:15:29.751Z,20.5
2016-12-04T08:16:29.980Z,20.53
2016-12-04T08:17:29.714Z,20.48
2016-12-04T08:18:29.699Z,20.53
2016-12-04T08:19:29.386Z,20.53
2016-12-04T08:20:29.357Z,20.57
2016-12-04T08:21:29.658Z,20.48
2016-12-04T08:22:29.346Z,20.48
2016-12-04T08:23:29.617Z,20.53
2016-12-04T08:24:29.606Z,20.6
2016-12-04T08:25:29.271Z,20.5
2016-12-04T08:26:29.478Z,20.6
2016-12-04T08:27:29.240Z,20.57
2016-12-04T08:28:29.537Z,20.61
2016-12-04T08:29:29.254Z,20.71
2016-12-04T08:30:29.508Z,20.64
2016-12-04T08:31:28.856Z,20.69
2016-12-04T08:32:29.527Z,20.64
2016-12-04T08:33:29.458Z,20.69
2016-12-04T08:34:29.124Z,20.71
2016-12-04T08:35:29.121Z,20.63
2016-12-04T08:36:29.408Z,20.71
2016-12-04T08:37:29.389Z,20.66
2016-12-04T08:38:29.052Z,20.69
2016-12-04T08:39:29.366Z,20.64
2016-12-04T08:40:29.344Z,20.68
2016-12-04T08:41:29.323Z,20.69
2016-12-04T08:42:28.993Z,20.68
2016-12-04T08:43:29.439Z,20.68
2016-12-04T08:44:28.957Z,20.75
2016-12-04T08:45:29.266Z,20.81
2016-12-04T08:46:29.251Z,20.61
2016-12-04T08:47:29.234Z,20.68
2016-12-04T08:48:29.217Z,20.73
2016-12-04T08:49:29.200Z,20.78
2016-12-04T08:50:29.194Z,20.72
2016-12-04T08:51:28.851Z,20.64
2016-12-04T08:52:29.146Z,20.75
2016-12-04T08:53:29.131Z,20.66
2016-12-04T08:54:29.118Z,20.71
2016-12-04T08:55:28.785Z,20.64
2016-12-04T08:56:28.971Z,20.68
2016-12-04T08:57:29.082Z,20.69
2016-12-04T08:58:28.743Z,20.72
2016-12-04T08:59:29.034Z,20.63
2016-12-04T09:00:29.028Z,20.58
2016-12-04T09:01:29.010Z,20.63
2016-12-04T09:02:28.988Z,20.69
2016-12-04T09:03:28.992Z,20.61
2016-12-04T09:04:28.950Z,20.6
2016-12-04T09:05:28.934Z,20.46
2016-12-04T09:06:28.926Z,20.48
2016-12-04T09:07:28.906Z,20.5
2016-12-04T09:08:28.891Z,20.5
2016-12-04T09:09:28.872Z,20.42
2016-12-04T09:10:28.864Z,20.48
2016-12-04T09:11:28.849Z,20.51
2016-12-04T09:12:28.825Z,20.48
2016-12-04T09:13:28.804Z,20.38
2016-12-04T09:14:28.794Z,20.41
2016-12-04T09:15:28.781Z,20.41
2016-12-04T09:16:28.444Z,20.46
2016-12-04T09:17:28.432Z,20.51
2016-12-04T09:18:28.732Z,20.48
2016-12-04T09:19:28.717Z,20.44
2016-12-04T09:20:28.703Z,20.5
2016-12-04T09:21:28.677Z,20.61
2016-12-04T09:22:28.663Z,20.64
2016-12-04T09:23:28.327Z,20.78
2016-12-04T09:24:28.630Z,20.75
2016-12-04T09:25:28.618Z,20.76
2016-12-04T09:26:28.595Z,20.82
2016-12-04T09:27:28.499Z,20.83
2016-12-04T09:28:28.566Z,20.85
2016-12-04T09:29:28.555Z,20.9
2016-12-04T09:30:28.532Z,20.82
2016-12-04T09:31:28.514Z,20.93
2016-12-04T09:32:28.504Z,20.81
2016-12-04T09:33:28.168Z,20.31
2016-12-04T09:34:28.473Z,17.09
2016-12-04T09:35:28.448Z,15.18
2016-12-04T09:36:28.123Z,13.99
2016-12-04T09:37:28.416Z,14.01
2016-12-04T09:38:28.404Z,13.24
2016-12-04T09:39:28.071Z,12.76
2016-12-04T09:40:28.366Z,12.12
2016-12-04T09:41:28.565Z,13.38
2016-12-04T09:42:28.254Z,14.87
2016-12-04T09:43:28.326Z,16.04
2016-12-04T09:44:27.994Z,16.9
2016-12-04T09:45:28.298Z,17.71
2016-12-04T09:46:28.285Z,18.1
2016-12-04T09:47:27.940Z,18.53
2016-12-04T09:48:28.232Z,18.71
2016-12-04T09:49:28.283Z,18.96
2016-12-04T09:50:28.211Z,19.06
2016-12-04T09:51:27.883Z,19.17
2016-12-04T09:52:28.174Z,19.28
2016-12-04T09:53:27.842Z,19.31
2016-12-04T09:54:28.142Z,19.35
2016-12-04T09:55:28.120Z,19.4
2016-12-04T09:56:28.103Z,19.49
2016-12-04T09:57:28.082Z,19.49
2016-12-04T09:58:27.754Z,19.6
2016-12-04T09:59:28.054Z,19.62
2016-12-04T10:00:27.723Z,19.64
2016-12-04T10:01:28.017Z,19.6
2016-12-04T10:02:27.997Z,19.58
2016-12-04T10:03:27.991Z,19.55
2016-12-04T10:04:27.969Z,19.32
2016-12-04T10:05:27.955Z,19.35
2016-12-04T10:06:27.933Z,19.46
2016-12-04T10:07:27.600Z,19.42
2016-12-04T10:08:27.905Z,19.57
2016-12-04T10:09:27.881Z,19.58
2016-12-04T10:10:27.550Z,19.6
2016-12-04T10:11:27.847Z,19.58
2016-12-04T10:12:27.516Z,19.68
2016-12-04T10:13:27.528Z,19.7
2016-12-04T10:14:27.799Z,19.65
2016-12-04T10:15:27.797Z,19.67
2016-12-04T10:16:27.767Z,19.65
2016-12-04T10:17:27.750Z,19.67
2016-12-04T10:18:27.734Z,19.67
2016-12-04T10:19:27.401Z,19.68
2016-12-04T10:20:27.714Z,19.68
2016-12-04T10:21:27.685Z,19.62
2016-12-04T10:22:27.673Z,19.7
2016-12-04T10:23:27.347Z,19.75
2016-12-04T10:24:27.320Z,19.7
2016-12-04T10:25:27.302Z,19.64
2016-12-04T10:26:27.282Z,19.61
2016-12-04T10:27:27.270Z,19.64
2016-12-04T10:28:27.572Z,19.7
2016-12-04T10:29:27.484Z,19.75
2016-12-04T10:30:27.532Z,19.67
2016-12-04T10:31:27.529Z,19.65
2016-12-04T10:32:27.498Z,19.68
2016-12-04T10:33:27.487Z,19.68
2016-12-04T10:34:27.467Z,19.62
2016-12-04T10:35:27.140Z,19.64
2016-12-04T10:36:27.434Z,19.61
2016-12-04T10:37:27.420Z,19.62
2016-12-04T10:38:27.401Z,19.64
2016-12-04T10:39:26.763Z,19.72
2016-12-04T10:40:27.432Z,19.65
2016-12-04T10:41:27.389Z,19.67
2016-12-04T10:42:27.334Z,19.65
2016-12-04T10:43:27.001Z,19.67
2016-12-04T10:44:26.981Z,19.71
2016-12-04T10:45:27.282Z,19.82
2016-12-04T10:46:27.273Z,19.72
2016-12-04T10:47:27.250Z,19.67
2016-12-04T10:48:27.243Z,19.67
2016-12-04T10:49:27.221Z,19.68
2016-12-04T10:50:26.888Z,19.67
2016-12-04T10:51:27.185Z,19.7
2016-12-04T10:52:27.168Z,19.67
2016-12-04T10:53:26.837Z,19.7
2016-12-04T10:54:27.133Z,19.67
2016-12-04T10:55:27.121Z,19.68
2016-12-04T10:56:27.105Z,19.67
2016-12-04T10:57:27.090Z,19.64
2016-12-04T10:58:26.767Z,19.72
2016-12-04T10:59:27.049Z,19.71
2016-12-04T11:00:27.035Z,19.72
2016-12-04T11:01:26.703Z,19.8
2016-12-04T11:02:26.686Z,19.64
2016-12-04T11:03:26.669Z,19.79
2016-12-04T11:04:26.971Z,19.75
2016-12-04T11:05:26.950Z,19.78
2016-12-04T11:06:26.615Z,19.78
2016-12-04T11:07:26.606Z,19.79
2016-12-04T11:08:26.901Z,19.78
2016-12-04T11:09:26.895Z,19.83
2016-12-04T11:10:26.870Z,19.76
2016-12-04T11:11:26.857Z,19.8
2016-12-04T11:12:26.838Z,19.8
2016-12-04T11:13:26.813Z,19.79
2016-12-04T11:14:26.800Z,19.79
2016-12-04T11:15:26.784Z,19.79
2016-12-04T11:16:26.453Z,19.83
2016-12-04T11:17:26.754Z,19.89
2016-12-04T11:18:26.744Z,19.79
2016-12-04T11:19:26.725Z,19.79
2016-12-04T11:20:26.706Z,19.85
2016-12-04T11:21:26.685Z,19.83
2016-12-04T11:22:26.355Z,19.79
2016-12-04T11:23:26.655Z,19.86
2016-12-04T11:24:26.325Z,19.83
2016-12-04T11:25:26.620Z,19.8
2016-12-04T11:26:26.608Z,19.82
2016-12-04T11:27:26.594Z,19.89
2016-12-04T11:28:26.571Z,19.87
2016-12-04T11:29:26.560Z,19.83
2016-12-04T11:30:26.544Z,19.89
2016-12-04T11:31:26.205Z,19.86
2016-12-04T11:32:26.514Z,19.85
2016-12-04T11:33:26.490Z,19.86
2016-12-04T11:34:25.839Z,19.83
2016-12-04T11:35:26.134Z,19.86
2016-12-04T11:36:26.441Z,19.86
2016-12-04T11:37:26.422Z,19.86
2016-12-04T11:38:26.407Z,19.85
2016-12-04T11:39:26.077Z,19.94
2016-12-04T11:40:26.373Z,19.94
2016-12-04T11:41:26.359Z,19.87
2016-12-04T11:42:26.336Z,19.83
2016-12-04T11:43:26.322Z,19.85
2016-12-04T11:44:26.305Z,19.83
2016-12-04T11:45:26.292Z,19.8
2016-12-04T11:46:26.272Z,19.87
2016-12-04T11:47:26.256Z,19.82
2016-12-04T11:48:26.246Z,19.85
2016-12-04T11:49:26.228Z,19.87
2016-12-04T11:50:26.208Z,19.79
2016-12-04T11:51:26.189Z,19.85
2016-12-04T11:52:26.180Z,19.83
2016-12-04T11:53:26.365Z,19.85
2016-12-04T11:54:26.061Z,19.9
2016-12-04T11:55:26.129Z,19.79
2016-12-04T11:56:26.112Z,19.86
2016-12-04T11:57:26.087Z,19.86
2016-12-04T11:58:25.448Z,19.94
2016-12-04T11:59:26.055Z,19.98
2016-12-04T12:00:26.040Z,19.9
2016-12-04T12:01:26.024Z,19.97
2016-12-04T12:02:26.008Z,19.89
2016-12-04T12:03:25.994Z,19.94
2016-12-04T12:04:25.983Z,19.85
2016-12-04T12:05:25.966Z,19.87
2016-12-04T12:06:25.630Z,19.85
2016-12-04T12:07:25.977Z,19.86
2016-12-04T12:08:25.910Z,19.83
2016-12-04T12:09:25.899Z,19.87
2016-12-04T12:10:25.884Z,19.85
2016-12-04T12:11:25.860Z,19.82
2016-12-04T12:12:25.845Z,19.92
2016-12-04T12:13:25.824Z,19.76
2016-12-04T12:14:25.494Z,19.82
2016-12-04T12:15:25.829Z,19.76
2016-12-04T12:16:25.774Z,19.85
2016-12-04T12:17:25.757Z,19.8
2016-12-04T12:18:25.742Z,19.79
2016-12-04T12:19:25.725Z,19.76
2016-12-04T12:20:25.393Z,19.75
2016-12-04T12:21:25.384Z,19.71
2016-12-04T12:22:25.703Z,19.72
2016-12-04T12:23:25.667Z,19.76
2016-12-04T12:24:25.642Z,19.75
2016-12-04T12:25:25.631Z,19.67
2016-12-04T12:26:25.646Z,19.68
2016-12-04T12:27:25.591Z,19.67
2016-12-04T12:28:25.575Z,19.78
2016-12-04T12:29:25.254Z,19.68
2016-12-04T12:30:25.545Z,19.68
2016-12-04T12:31:25.526Z,19.61
2016-12-04T12:32:25.515Z,19.65
2016-12-04T12:33:25.489Z,19.64
2016-12-04T12:34:25.480Z,19.71
2016-12-04T12:35:25.463Z,19.68
2016-12-04T12:36:25.447Z,19.7
2016-12-04T12:37:25.111Z,19.71
2016-12-04T12:38:25.413Z,19.67
2016-12-04T12:39:25.395Z,19.7
2016-12-04T12:40:25.379Z,19.61
2016-12-04T12:41:25.367Z,19.6
2016-12-04T12:42:25.346Z,19.62
2016-12-04T12:43:25.332Z,19.6
2016-12-04T12:44:25.511Z,19.64
2016-12-04T12:45:25.292Z,19.7
2016-12-04T12:46:25.280Z,19.64
2016-12-04T12:47:25.167Z,19.61
2016-12-04T12:48:24.935Z,19.61
2016-12-04T12:49:25.230Z,19.6
2016-12-04T12:50:25.211Z,19.67
2016-12-04T12:51:25.192Z,19.61
2016-12-04T12:52:25.181Z,19.6
2016-12-04T12:53:24.848Z,19.61
2016-12-04T12:54:25.148Z,19.62
2016-12-04T12:55:25.127Z,19.58